Time;durP1;ratioP1;P1;durP2;ratioP2;P2;SDS_P1;SDS_P2;PMS_P1;PMS_P2;Temp;Humidity;BMP_temperature;BMP_pressure;BME280_temperature;BME280_humidity;BME280_pressure;Samples;Min_cycle;Max_cycle;Signal;HPM_P1;HPM_P2
2022/10/24 00:00:06;;;;;;;22.52;16.35;;;409.70;2355.20;;;;;;4996894;28;20368;-78
2022/10/24 00:02:32;;;;;;;27.75;16.85;;;409.70;2355.20;;;;;;5012916;28;20054;-81
2022/10/24 00:04:58;;;;;;;26.67;16.65;;;409.70;2355.20;;;;;;5024889;28;20041;-82
2022/10/24 00:07:23;;;;;;;28.98;16.20;;;409.70;2355.20;;;;;;4994267;28;20056;-80
2022/10/24 00:09:49;;;;;;;23.48;15.88;;;409.70;2355.20;;;;;;5017750;28;20045;-79
2022/10/24 00:12:17;;;;;;;24.33;16.00;;;409.80;2355.20;;;;;;5001662;28;20026;-78
2022/10/24 00:14:43;;;;;;;30.10;15.93;;;409.80;2355.20;;;;;;4999610;28;20049;-81
2022/10/24 00:17:08;;;;;;;26.45;17.05;;;409.80;2355.20;;;;;;5017576;28;20471;-78
2022/10/24 00:19:34;;;;;;;29.55;17.00;;;409.80;2355.20;;;;;;4999443;28;20061;-78
2022/10/24 00:22:00;;;;;;;29.35;16.35;;;409.90;2355.20;;;;;;4999028;28;20459;-77
2022/10/24 00:24:26;;;;;;;25.80;17.42;;;409.90;2355.20;;;;;;5002187;28;20030;-78
2022/10/24 00:26:51;;;;;;;29.60;17.42;;;409.90;2355.20;;;;;;5005015;28;20434;-78
2022/10/24 00:29:17;;;;;;;22.85;15.38;;;409.90;2355.20;;;;;;4997621;28;20036;-79
2022/10/24 00:31:43;;;;;;;25.20;16.90;;;409.90;2355.20;;;;;;5003528;28;20076;-78
2022/10/24 00:34:09;;;;;;;24.15;15.55;;;409.90;2355.20;;;;;;4993489;28;20042;-79
2022/10/24 00:36:35;;;;;;;25.40;15.98;;;409.90;2355.20;;;;;;5012889;28;20084;-78
2022/10/24 00:39:01;;;;;;;21.42;15.52;;;409.90;2355.20;;;;;;5005071;28;20030;-80
2022/10/24 00:41:33;;;;;;;33.33;17.58;;;409.90;2355.20;;;;;;4994395;28;20022;-79
2022/10/24 00:44:15;;;;;;;22.98;17.25;;;409.90;2355.20;;;;;;4997341;28;20368;-77
2022/10/24 00:46:45;;;;;;;26.20;16.33;;;409.90;2355.20;;;;;;5020721;28;20064;-78
2022/10/24 00:49:23;;;;;;;23.27;14.95;;;409.80;2355.20;;;;;;5000641;28;20394;-78
2022/10/24 00:51:55;;;;;;;21.67;14.07;;;409.80;2355.20;;;;;;5011428;28;20052;-77
2022/10/24 00:54:20;;;;;;;22.88;15.10;;;409.80;2355.20;;;;;;5007142;28;20486;-78
2022/10/24 00:57:19;;;;;;;22.58;15.25;;;409.80;2355.20;;;;;;5005568;28;20117;-78
2022/10/24 00:59:48;;;;;;;24.63;15.07;;;409.70;2355.20;;;;;;4998690;28;20133;-78
2022/10/24 01:02:14;;;;;;;23.55;15.45;;;409.80;2355.20;;;;;;5025739;28;20021;-77
2022/10/24 01:04:40;;;;;;;22.10;15.30;;;409.80;2355.20;;;;;;5023448;28;20030;-78
2022/10/24 01:07:39;;;;;;;23.75;15.40;;;409.70;2355.20;;;;;;5005143;28;20036;-78
2022/10/24 01:10:33;;;;;;;23.38;14.98;;;409.70;2355.20;;;;;;5020056;28;20383;-79
2022/10/24 01:13:25;;;;;;;24.23;16.17;;;409.60;2355.20;;;;;;5002676;28;20070;-79
2022/10/24 01:16:14;;;;;;;37.70;16.55;;;409.60;2355.20;;;;;;4999976;28;20041;-79
2022/10/24 01:19:10;;;;;;;20.55;14.68;;;409.60;2355.20;;;;;;5003218;28;20018;-80
2022/10/24 01:21:42;;;;;;;21.50;14.07;;;384.90;2329.60;;;;;;5020007;28;20467;-82
2022/10/24 01:24:29;;;;;;;23.02;14.63;;;384.90;2329.60;;;;;;4999616;28;20061;-81
2022/10/24 01:27:13;;;;;;;;;;;384.90;2329.60;;;;;;5009320;28;20021;-78
2022/10/24 01:29:45;;;;;;;24.27;14.77;;;384.70;2329.60;;;;;;5005846;28;19945;-81
2022/10/24 01:32:30;;;;;;;25.48;14.95;;;384.60;2329.60;;;;;;5005782;28;20053;-78
2022/10/24 01:35:06;;;;;;;29.92;15.18;;;384.60;2329.60;;;;;;5022802;28;20030;-82
2022/10/24 01:37:42;;;;;;;26.60;15.52;;;384.50;2329.60;;;;;;5004560;28;20096;-78
2022/10/24 01:40:26;;;;;;;24.95;15.63;;;384.50;2329.60;;;;;;5019135;28;20022;-78
2022/10/24 01:42:57;;;;;;;25.20;15.27;;;384.50;2329.60;;;;;;5023338;28;20042;-77
2022/10/24 01:45:29;;;;;;;22.45;15.07;;;384.50;2329.60;;;;;;4996657;28;20030;-77
2022/10/24 01:47:59;;;;;;;21.02;14.45;;;384.40;2329.60;;;;;;5002065;28;20033;-78
2022/10/24 01:50:25;;;;;;;20.85;14.02;;;384.50;2329.60;;;;;;4999877;28;20065;-78
2022/10/24 01:52:54;;;;;;;22.80;14.35;;;384.40;2329.60;;;;;;5004539;28;20025;-79
2022/10/24 01:55:20;;;;;;;23.77;14.38;;;384.40;2329.60;;;;;;5002759;28;20510;-83
2022/10/24 01:57:46;;;;;;;25.45;14.63;;;384.40;2329.60;;;;;;5008966;28;20018;-80
2022/10/24 02:00:20;;;;;;;26.05;13.68;;;384.50;2329.60;;;;;;4999406;28;20049;-80
2022/10/24 02:03:07;;;;;;;21.27;13.35;;;384.40;2329.60;;;;;;5007595;28;20072;-81
2022/10/24 02:05:39;;;;;;;22.17;14.00;;;384.50;2329.60;;;;;;5023237;28;20079;-80
2022/10/24 02:08:13;;;;;;;19.83;13.35;;;384.50;2329.60;;;;;;5004798;28;20021;-80
2022/10/24 02:10:46;;;;;;;26.33;14.10;;;384.50;2329.60;;;;;;5013283;28;20022;-82
2022/10/24 02:13:21;;;;;;;21.75;14.75;;;384.50;2329.60;;;;;;5010888;28;20486;-81
2022/10/24 02:15:51;;;;;;;26.83;14.77;;;384.60;2329.60;;;;;;5014383;28;20040;-80
2022/10/24 02:18:18;;;;;;;21.52;13.95;;;384.60;2329.60;;;;;;5004859;28;20108;-79
2022/10/24 02:20:56;;;;;;;20.65;13.98;;;384.60;2329.60;;;;;;5014640;28;20029;-80
2022/10/24 02:23:35;;;;;;;24.42;14.55;;;384.70;2329.60;;;;;;5005246;28;20487;-80
2022/10/24 02:26:04;;;;;;;23.73;14.68;;;384.60;2329.60;;;;;;5004550;28;20038;-80
2022/10/24 02:28:37;;;;;;;27.27;14.38;;;384.50;2329.60;;;;;;5010239;28;20057;-80
2022/10/24 02:31:11;;;;;;;21.25;14.30;;;384.50;2329.60;;;;;;5016504;28;20025;-80
2022/10/24 02:33:39;;;;;;;19.52;14.00;;;384.40;2329.60;;;;;;4998717;28;20029;-80
2022/10/24 05:50:01;;;;;;;23.70;15.85;;;359.00;2329.60;;;;;;3363872;23;20061;-77
2022/10/24 05:52:27;;;;;;;24.90;16.17;;;359.00;2329.60;;;;;;5014827;28;20042;-80
2022/10/24 05:54:53;;;;;;;25.83;15.93;;;359.10;2329.60;;;;;;5009792;28;20043;-83
2022/10/24 05:57:19;;;;;;;26.17;16.27;;;359.20;2329.60;;;;;;5014568;28;20157;-85
2022/10/24 05:59:45;;;;;;;24.10;15.13;;;359.20;2329.60;;;;;;5021464;28;20037;-81
2022/10/24 06:02:19;;;;;;;24.85;16.15;;;359.20;2329.60;;;;;;5016198;28;20026;-83
2022/10/24 06:04:45;;;;;;;24.83;15.77;;;359.30;2329.60;;;;;;4998560;28;20100;-76
2022/10/24 06:07:11;;;;;;;27.95;16.35;;;359.20;2329.60;;;;;;5004528;28;20109;-77
2022/10/24 06:09:39;;;;;;;28.20;16.30;;;384.00;2329.60;;;;;;4997469;28;20069;-76
2022/10/24 06:12:07;;;;;;;27.10;15.35;;;384.00;2329.60;;;;;;5030460;28;20039;-77
2022/10/24 06:14:33;;;;;;;23.60;15.70;;;384.00;2329.60;;;;;;5033033;28;20068;-76
2022/10/24 06:16:59;;;;;;;21.42;15.07;;;384.10;2329.60;;;;;;5032808;28;20123;-77
2022/10/24 06:19:24;;;;;;;24.83;16.10;;;384.10;2329.60;;;;;;5034209;28;20136;-78
2022/10/24 06:21:50;;;;;;;24.30;15.65;;;384.20;2329.60;;;;;;5032686;28;20037;-76
2022/10/24 06:24:16;;;;;;;24.45;15.07;;;384.30;2329.60;;;;;;5020454;28;20030;-80
2022/10/24 06:26:41;;;;;;;20.02;14.75;;;384.40;2329.60;;;;;;5008556;28;20034;-80
2022/10/24 06:29:07;;;;;;;21.17;13.90;;;384.40;2329.60;;;;;;5012996;28;20033;-80
2022/10/24 06:31:34;;;;;;;21.75;15.85;;;384.50;2329.60;;;;;;5033199;28;20044;-79
2022/10/24 06:34:00;;;;;;;27.58;15.80;;;384.60;2329.60;;;;;;5033074;28;20509;-80
2022/10/24 06:36:26;;;;;;;22.52;14.88;;;384.70;2329.60;;;;;;5019118;28;20046;-79
2022/10/24 06:38:53;;;;;;;23.60;14.40;;;384.70;2329.60;;;;;;5003864;28;20508;-84
2022/10/24 06:41:19;;;;;;;25.60;15.13;;;384.80;2329.60;;;;;;5001339;28;20130;-82
2022/10/24 06:43:45;;;;;;;24.27;15.07;;;384.90;2329.60;;;;;;4998098;28;20125;-81
2022/10/24 06:46:14;;;;;;;22.90;16.52;;;384.80;2329.60;;;;;;5006888;28;20128;-83
2022/10/24 06:48:40;;;;;;;22.50;14.82;;;384.90;2329.60;;;;;;5027050;28;20030;-81
2022/10/24 06:51:06;;;;;;;30.10;15.95;;;384.90;2329.60;;;;;;5012678;28;20053;-80
2022/10/24 06:53:32;;;;;;;23.80;15.25;;;384.90;2329.60;;;;;;5013667;28;20394;-83
2022/10/24 06:56:02;;;;;;;23.27;15.90;;;409.70;2355.20;;;;;;5026207;28;20033;-81
2022/10/24 06:58:34;;;;;;;23.42;14.70;;;409.70;2355.20;;;;;;5014451;28;20030;-80
2022/10/24 07:01:10;;;;;;;25.15;15.38;;;409.80;2355.20;;;;;;5005757;28;20029;-83
2022/10/24 07:03:36;;;;;;;27.67;16.27;;;409.90;2355.20;;;;;;5019835;28;20566;-81
2022/10/24 07:06:14;;;;;;;30.17;16.63;;;410.00;2355.20;;;;;;5031886;28;20036;-82
2022/10/24 07:08:39;;;;;;;27.88;15.82;;;410.00;2355.20;;;;;;5032815;28;20037;-83
2022/10/24 07:11:05;;;;;;;28.60;16.27;;;410.20;2355.20;;;;;;5032782;28;20064;-81
2022/10/24 07:13:31;;;;;;;21.05;16.35;;;410.20;2355.20;;;;;;5033984;28;20038;-83
2022/10/24 07:15:57;;;;;;;27.48;17.92;;;410.30;2355.20;;;;;;5030014;28;20038;-83
2022/10/24 07:18:23;;;;;;;29.10;17.50;;;410.40;2355.20;;;;;;5021529;28;20072;-83
2022/10/24 07:20:49;;;;;;;25.60;16.80;;;410.00;2355.20;;;;;;5032399;28;20128;-81
2022/10/24 07:23:15;;;;;;;25.67;16.48;;;410.50;2355.20;;;;;;5004041;28;20129;-85
2022/10/24 07:25:40;;;;;;;26.33;17.63;;;435.20;2355.20;;;;;;5018001;28;20057;-83
2022/10/24 07:28:07;;;;;;;29.88;17.60;;;435.30;2355.20;;;;;;5031031;28;20041;-83
2022/10/24 07:30:33;;;;;;;25.20;16.92;;;435.40;2355.20;;;;;;5013102;28;20395;-85
2022/10/24 07:32:59;;;;;;;27.92;18.52;;;435.50;2355.20;;;;;;5012971;28;20037;-84
2022/10/24 07:35:26;;;;;;;30.92;18.77;;;435.60;2355.20;;;;;;5018010;28;20429;-83
2022/10/24 07:37:52;;;;;;;31.67;18.60;;;435.80;2355.20;;;;;;5021120;28;20541;-82
2022/10/24 07:40:18;;;;;;;31.52;16.60;;;435.90;2355.20;;;;;;5013638;28;20483;-82
2022/10/24 07:42:44;;;;;;;30.25;17.50;;;435.90;2355.20;;;;;;5012898;28;20150;-83
2022/10/24 07:45:11;;;;;;;27.85;17.65;;;436.00;2355.20;;;;;;5012302;28;20030;-82
2022/10/24 07:47:36;;;;;;;25.45;16.23;;;436.10;2355.20;;;;;;5012219;28;20090;-81
2022/10/24 07:50:04;;;;;;;27.23;17.33;;;460.80;2380.80;;;;;;5012046;28;20077;-82
2022/10/24 07:52:30;;;;;;;22.08;15.77;;;460.80;2380.80;;;;;;5003620;28;20120;-83
2022/10/24 07:54:57;;;;;;;26.20;16.10;;;461.00;2380.80;;;;;;5020548;28;20149;-82
2022/10/24 07:57:23;;;;;;;25.80;17.10;;;461.10;2380.80;;;;;;5026230;28;20490;-84
2022/10/24 07:59:49;;;;;;;22.55;16.25;;;461.10;2380.80;;;;;;5012540;28;20406;-83
2022/10/24 08:02:16;;;;;;;21.50;15.23;;;461.20;2380.80;;;;;;5012460;28;20053;-81
2022/10/24 08:04:42;;;;;;;22.90;15.35;;;461.30;2380.80;;;;;;5012050;28;20029;-85
2022/10/24 08:07:12;;;;;;;24.05;14.80;;;461.30;2380.80;;;;;;5012173;28;20482;-81
2022/10/24 08:09:43;;;;;;;23.02;14.18;;;461.40;2380.80;;;;;;5012142;28;20491;-80
2022/10/24 08:12:08;;;;;;;26.30;15.65;;;461.50;2380.80;;;;;;5024775;28;20029;-83
2022/10/24 08:14:36;;;;;;;24.83;14.70;;;461.60;2380.80;;;;;;5014250;28;20494;-81
2022/10/24 08:17:03;;;;;;;25.10;13.95;;;461.70;2380.80;;;;;;4998769;28;20034;-80
2022/10/24 08:19:30;;;;;;;24.20;14.43;;;486.50;2380.80;;;;;;5029321;28;20100;-82
2022/10/24 08:21:55;;;;;;;28.45;13.82;;;486.50;2380.80;;;;;;5014447;28;20053;-80
2022/10/24 08:24:21;;;;;;;20.52;14.70;;;486.50;2380.80;;;;;;5006710;28;20108;-81
2022/10/24 08:26:47;;;;;;;26.33;15.00;;;486.70;2380.80;;;;;;5002945;28;20026;-82
2022/10/24 08:29:20;;;;;;;25.48;14.13;;;486.70;2380.80;;;;;;4998384;28;20033;-78
2022/10/24 08:31:52;;;;;;;22.63;12.65;;;486.80;2380.80;;;;;;5005565;28;20372;-79
2022/10/24 08:34:18;;;;;;;25.42;14.40;;;486.80;2380.80;;;;;;5002729;28;20065;-80
2022/10/24 08:36:45;;;;;;;22.33;12.98;;;486.80;2380.80;;;;;;5002466;28;20112;-82
2022/10/24 08:39:11;;;;;;;27.88;13.20;;;486.80;2380.80;;;;;;5003394;28;20033;-80
2022/10/24 08:41:45;;;;;;;24.27;13.88;;;486.80;2380.80;;;;;;5019533;28;20316;-82
2022/10/24 08:44:28;;;;;;;28.42;14.30;;;486.80;2380.80;;;;;;5010052;28;20026;-83
2022/10/24 08:47:23;;;;;;;35.80;13.52;;;486.80;2380.80;;;;;;4999679;28;20038;-83
2022/10/24 08:49:54;;;;;;;19.50;12.55;;;486.80;2380.80;;;;;;5015649;28;20048;-82
2022/10/24 08:52:52;;;;;;;23.73;13.18;;;486.90;2380.80;;;;;;5031382;28;20045;-82
2022/10/24 08:55:22;;;;;;;23.80;11.85;;;487.00;2380.80;;;;;;4936639;29;20039;-84
2022/10/24 08:57:55;;;;;;;22.67;11.60;;;487.10;2380.80;;;;;;4920277;29;20374;-82
2022/10/24 09:00:27;;;;;;;20.88;11.88;;;487.30;2380.80;;;;;;4916948;29;20123;-82
2022/10/24 09:03:16;;;;;;;20.80;11.98;;;512.10;2380.80;;;;;;4930464;29;20035;-81
2022/10/24 09:05:50;;;;;;;19.35;11.45;;;512.30;2380.80;;;;;;4935929;29;20059;-83
2022/10/24 09:08:33;;;;;;;24.20;11.13;;;512.40;2380.80;;;;;;4932325;29;20555;-82
2022/10/24 09:11:02;;;;;;;22.05;13.00;;;512.60;2380.80;;;;;;4937345;29;20140;-83
2022/10/24 09:13:29;;;;;;;17.88;10.90;;;512.70;2380.80;;;;;;4920453;29;20036;-83
2022/10/24 09:15:56;;;;;;;20.30;12.35;;;512.80;2380.80;;;;;;4927600;29;20040;-83
2022/10/24 09:18:36;;;;;;;18.42;11.85;;;512.80;2380.80;;;;;;4928314;29;20036;-83
2022/10/24 09:21:05;;;;;;;25.55;11.00;;;537.60;2406.40;;;;;;4910872;29;20516;-84
2022/10/24 09:23:32;;;;;;;21.25;11.15;;;537.70;2406.40;;;;;;4915199;29;20035;-84
2022/10/24 09:25:59;;;;;;;21.58;10.68;;;538.00;2406.40;;;;;;4912302;29;20028;-84
2022/10/24 09:28:25;;;;;;;17.75;10.48;;;538.00;2406.40;;;;;;4906915;29;20028;-83
2022/10/24 09:30:51;;;;;;;21.80;11.98;;;538.00;2406.40;;;;;;4961049;28;20377;-84
2022/10/24 09:33:32;;;;;;;16.63;10.20;;;538.10;2406.40;;;;;;5034829;28;20040;-83
2022/10/24 09:36:00;;;;;;;21.80;11.98;;;538.20;2406.40;;;;;;5020783;28;20091;-83
2022/10/24 09:38:33;;;;;;;17.45;11.30;;;538.40;2406.40;;;;;;5032075;28;20029;-82
2022/10/24 09:41:28;;;;;;;21.58;10.85;;;563.30;2432.00;;;;;;5006565;28;20029;-81
2022/10/24 09:43:57;;;;;;;19.92;11.63;;;563.40;2432.00;;;;;;5006164;28;20026;-83
2022/10/24 09:46:25;;;;;;;19.30;10.52;;;563.60;2432.00;;;;;;5002073;28;20462;-82
2022/10/24 09:48:58;;;;;;;20.92;11.88;;;563.60;2432.00;;;;;;5002094;28;20102;-83
2022/10/24 09:52:03;;;;;;;19.38;10.82;;;563.90;2432.00;;;;;;5004513;28;20053;-82
2022/10/24 09:54:32;;;;;;;20.42;10.85;;;564.10;2432.00;;;;;;5000886;28;20099;-80
2022/10/24 09:57:00;;;;;;;20.75;11.38;;;589.00;2432.00;;;;;;5013675;28;20037;-83
2022/10/24 09:59:56;;;;;;;22.38;11.40;;;589.10;2432.00;;;;;;5021578;28;20029;-84
2022/10/24 10:02:36;;;;;;;27.55;12.02;;;589.00;2432.00;;;;;;5033867;28;20382;-85
2022/10/24 10:05:02;;;;;;;34.97;14.70;;;589.00;2432.00;;;;;;5033904;28;20034;-83
2022/10/24 10:07:34;;;;;;;24.25;13.10;;;589.20;2432.00;;;;;;5016737;28;20390;-81
2022/10/24 10:10:04;;;;;;;27.48;11.48;;;589.30;2432.00;;;;;;5022854;28;20034;-83
2022/10/24 10:12:36;;;;;;;19.85;11.13;;;589.50;2432.00;;;;;;5019945;28;20513;-81
2022/10/24 10:15:31;;;;;;;22.08;12.52;;;589.70;2432.00;;;;;;5001208;28;20495;-81
2022/10/24 10:18:00;;;;;;;19.70;11.50;;;614.60;2432.00;;;;;;4997075;28;20108;-81
2022/10/24 10:20:41;;;;;;;25.00;12.63;;;614.50;2432.00;;;;;;5001569;28;20038;-83
2022/10/24 10:23:24;;;;;;;24.88;12.20;;;589.60;2432.00;;;;;;4994872;28;20161;-84
2022/10/24 10:26:15;;;;;;;24.13;12.05;;;589.70;2432.00;;;;;;4994546;28;20480;-82
2022/10/24 10:28:53;;;;;;;26.08;12.65;;;614.60;2432.00;;;;;;5010145;28;20026;-79
2022/10/24 10:31:21;;;;;;;30.63;12.02;;;;;;;;;;5006463;28;20033;-83
2022/10/24 10:33:57;;;;;;;31.58;12.98;;;614.80;2432.00;;;;;;5008621;28;20064;-81
2022/10/24 10:36:34;;;;;;;19.58;11.13;;;614.70;2432.00;;;;;;5028008;28;20568;-79
2022/10/24 10:39:35;;;;;;;21.88;10.63;;;614.50;2432.00;;;;;;5032420;28;20120;-85
2022/10/24 10:42:13;;;;;;;19.13;10.38;;;614.50;2432.00;;;;;;4937722;29;20043;-81
2022/10/24 10:44:42;;;;;;;36.05;10.15;;;589.70;2432.00;;;;;;4953409;29;20492;-81
2022/10/24 10:47:34;;;;;;;24.05;11.10;;;614.40;2432.00;;;;;;4954035;29;20099;-80
2022/10/24 10:50:01;;;;;;;25.05;12.15;;;589.70;2432.00;;;;;;4937177;29;20478;-78
2022/10/24 10:52:47;;;;;;;36.97;19.80;;;589.70;2432.00;;;;;;4937287;29;20031;-79
2022/10/24 10:55:34;;;;;;;30.88;14.30;;;589.70;2432.00;;;;;;4923803;29;20528;-80
2022/10/24 10:58:29;;;;;;;26.08;11.57;;;589.60;2432.00;;;;;;4929001;29;20039;-80
2022/10/24 11:00:57;;;;;;;35.67;17.05;;;589.70;2432.00;;;;;;4936579;29;20122;-86
2022/10/24 11:03:31;;;;;;;37.40;16.48;;;589.70;2432.00;;;;;;4953456;29;20035;-81
2022/10/24 11:06:17;;;;;;;34.90;12.75;;;589.70;2432.00;;;;;;4953786;29;20042;-82
2022/10/24 11:08:56;;;;;;;25.13;11.63;;;589.70;2432.00;;;;;;4924379;29;20043;-81
2022/10/24 11:11:27;;;;;;;22.33;11.75;;;614.50;2432.00;;;;;;4929184;29;20043;-82
2022/10/24 11:14:22;;;;;;;37.35;12.38;;;614.40;2432.00;;;;;;4925221;29;20054;-84
2022/10/24 11:16:51;;;;;;;27.60;11.90;;;589.70;2432.00;;;;;;4933388;28;20034;-83
2022/10/24 11:19:28;;;;;;;22.27;11.10;;;614.40;2432.00;;;;;;5013412;28;20034;-81
2022/10/24 11:21:58;;;;;;;24.38;10.95;;;614.50;2432.00;;;;;;5003416;28;20566;-83
2022/10/24 11:24:25;;;;;;;33.15;11.55;;;614.40;2432.00;;;;;;5004459;28;20041;-85
2022/10/24 11:27:02;;;;;;;23.73;11.07;;;614.50;2432.00;;;;;;5001896;28;20120;-83
2022/10/24 11:29:42;;;;;;;22.13;11.48;;;614.50;2432.00;;;;;;5007232;28;20026;-82
2022/10/24 11:32:16;;;;;;;26.05;12.13;;;589.70;2432.00;;;;;;5002570;28;20053;-83
2022/10/24 11:34:57;;;;;;;24.10;11.43;;;589.70;2432.00;;;;;;4994230;28;20042;-87
2022/10/24 11:37:42;;;;;;;23.63;11.50;;;589.70;2432.00;;;;;;5002765;28;20483;-81
2022/10/24 11:40:08;;;;;;;53.58;13.60;;;589.70;2432.00;;;;;;5004383;28;20096;-81
2022/10/24 11:43:00;;;;;;;29.77;12.60;;;589.70;2432.00;;;;;;4998411;28;20113;-86
2022/10/24 11:45:43;;;;;;;25.65;15.05;;;589.70;2432.00;;;;;;4995277;28;20038;-81
2022/10/24 11:48:52;;;;;;;29.73;15.32;;;589.70;2432.00;;;;;;4998991;28;20077;-80
2022/10/24 11:51:39;;;;;;;27.63;13.43;;;589.70;2432.00;;;;;;4990663;28;20045;-82
2022/10/24 11:54:23;;;;;;;;;;;589.70;2432.00;;;;;;5004694;28;20038;-81
2022/10/24 11:56:53;;;;;;;24.30;11.80;;;589.70;2432.00;;;;;;5021088;28;20024;-80
2022/10/24 11:59:24;;;;;;;25.95;11.93;;;589.70;2432.00;;;;;;4995278;28;20030;-81
2022/10/24 12:01:58;;;;;;;31.70;13.35;;;614.40;2432.00;;;;;;5033814;28;20436;-84
2022/10/24 12:04:42;;;;;;;25.75;13.35;;;614.50;2432.00;;;;;;5013537;28;20026;-83
2022/10/24 12:07:33;;;;;;;29.15;11.07;;;614.50;2432.00;;;;;;5025770;28;20084;-86
2022/10/24 12:10:17;;;;;;;24.95;10.05;;;614.50;2432.00;;;;;;5011894;28;20033;-85
2022/10/24 12:13:13;;;;;;;26.75;10.68;;;614.50;2432.00;;;;;;5012011;28;20021;-83
2022/10/24 12:16:05;;;;;;;29.70;10.00;;;614.50;2432.00;;;;;;5011515;28;20042;-82
2022/10/24 12:18:44;;;;;;;21.08;11.02;;;614.50;2432.00;;;;;;5012129;28;20034;-82
2022/10/24 12:21:14;;;;;;;28.23;10.32;;;614.40;2432.00;;;;;;5016773;28;20033;-82
2022/10/24 12:23:41;;;;;;;33.15;9.00;;;614.50;2432.00;;;;;;5030197;28;20394;-84
2022/10/24 12:26:17;;;;;;;31.63;9.60;;;614.60;2432.00;;;;;;5026098;28;20080;-82
2022/10/24 12:28:52;;;;;;;;;;;614.60;2432.00;;;;;;5003063;28;20026;-81
2022/10/24 12:31:20;;;;;;;27.90;9.80;;;614.60;2432.00;;;;;;4996382;28;19948;-84
2022/10/24 12:34:18;;;;;;;21.85;9.45;;;614.50;2432.00;;;;;;5008775;28;20065;-82
2022/10/24 12:37:02;;;;;;;18.42;9.13;;;614.60;2432.00;;;;;;5004887;28;20030;-81
2022/10/24 12:39:34;;;;;;;20.45;7.85;;;614.60;2432.00;;;;;;5002457;28;20093;-83
2022/10/24 12:42:00;;;;;;;23.60;8.43;;;614.60;2432.00;;;;;;5007192;28;20121;-85
2022/10/24 12:44:32;;;;;;;21.27;9.27;;;614.60;2432.00;;;;;;5011843;28;20034;-82
2022/10/24 12:46:59;;;;;;;25.25;8.63;;;614.60;2432.00;;;;;;5006917;28;20072;-82
2022/10/24 12:49:30;;;;;;;21.17;9.10;;;614.60;2432.00;;;;;;4995231;28;20041;-82
2022/10/24 12:51:57;;;;;;;20.73;8.60;;;614.80;2432.00;;;;;;5008484;28;20042;-81
2022/10/24 12:54:52;;;;;;;18.52;7.35;;;614.80;2432.00;;;;;;4999226;28;20038;-80
2022/10/24 12:57:26;;;;;;;24.30;8.30;;;614.90;2432.00;;;;;;4935845;28;20070;-83
2022/10/24 12:59:57;;;;;;;27.63;9.18;;;615.00;2432.00;;;;;;4925649;29;20044;-82
2022/10/24 13:02:30;;;;;;;30.58;9.50;;;615.20;2432.00;;;;;;4925723;29;20031;-83
2022/10/24 13:04:56;;;;;;;26.10;8.35;;;;;;;;;;4936348;29;20059;-81
2022/10/24 13:07:53;;;;;;;20.13;8.45;;;640.00;2278.40;;;;;;4936936;29;20031;-84
2022/10/24 13:10:55;;;;;;;24.70;9.35;;;640.10;2278.40;;;;;;4939915;29;20035;-78
2022/10/24 13:13:49;;;;;;;25.08;9.30;;;640.30;2176.00;;;;;;4955621;28;20040;-81
2022/10/24 13:17:04;;;;;;;29.40;9.32;;;640.20;2176.00;;;;;;4945140;29;20043;-81
2022/10/24 13:19:31;;;;;;;20.58;8.68;;;640.20;2176.00;;;;;;4898019;29;20113;-81
2022/10/24 13:21:59;;;;;;;17.08;8.07;;;640.20;2150.40;;;;;;4890684;29;20042;-82
2022/10/24 13:24:32;;;;;;;24.77;8.57;;;640.30;2124.80;;;;;;4904863;29;20033;-83
2022/10/24 13:27:07;;;;;;;26.90;9.25;;;640.20;2073.60;;;;;;4890430;29;20092;-83
2022/10/24 13:29:33;;;;;;;26.52;8.23;;;640.20;2201.60;;;;;;4891396;29;20040;-82
2022/10/24 13:32:04;;;;;;;22.20;8.13;;;640.20;2176.00;;;;;;4897938;29;20032;-82
2022/10/24 13:34:32;;;;;;;29.13;8.77;;;640.10;2227.20;;;;;;4929676;29;20028;-82
2022/10/24 13:37:09;;;;;;;26.23;8.95;;;640.10;2227.20;;;;;;4953352;29;20032;-82
2022/10/24 13:39:45;;;;;;;24.88;8.88;;;640.00;2227.20;;;;;;4940760;29;20038;-83
2022/10/24 13:42:35;;;;;;;24.23;9.25;;;615.30;2227.20;;;;;;4949127;29;20266;-83
2022/10/24 13:45:17;;;;;;;27.02;8.38;;;615.30;2227.20;;;;;;4876846;29;20040;-82
2022/10/24 13:47:49;;;;;;;21.30;8.85;;;615.20;2227.20;;;;;;4850723;29;20124;-83
2022/10/24 13:50:29;;;;;;;30.67;8.30;;;615.20;2329.60;;;;;;4876001;29;20049;-84
2022/10/24 13:53:22;;;;;;;20.17;7.45;;;615.20;2380.80;;;;;;4889699;29;20036;-86
2022/10/24 13:55:50;;;;;;;29.23;9.77;;;615.20;2355.20;;;;;;4938552;29;20047;-82
2022/10/24 13:58:21;;;;;;;22.85;8.52;;;615.20;2380.80;;;;;;4955116;28;20042;-81
2022/10/24 14:01:00;;;;;;;18.80;8.07;;;615.20;2304.00;;;;;;4972171;28;20545;-82
2022/10/24 14:03:29;;;;;;;27.65;9.85;;;615.20;2355.20;;;;;;4962774;28;20094;-82
2022/10/24 14:05:58;;;;;;;22.08;9.25;;;615.10;2304.00;;;;;;4938480;29;20066;-85
2022/10/24 14:08:30;;;;;;;32.92;8.90;;;615.10;2355.20;;;;;;4965605;28;20038;-82
2022/10/24 14:10:58;;;;;;;28.73;8.75;;;615.00;2406.40;;;;;;4973959;28;20038;-81
2022/10/24 14:13:25;;;;;;;24.55;10.38;;;615.00;2355.20;;;;;;4973766;28;20780;-83
2022/10/24 14:16:00;;;;;;;25.85;9.52;;;614.90;2380.80;;;;;;4957794;28;20093;-82
2022/10/24 14:18:26;;;;;;;20.63;9.07;;;614.90;2432.00;;;;;;4964722;28;20040;-82
2022/10/24 14:20:58;;;;;;;26.35;8.70;;;614.80;2432.00;;;;;;4969781;28;20377;-80
2022/10/24 14:23:35;;;;;;;24.90;8.55;;;614.80;2432.00;;;;;;5032503;28;20034;-80
2022/10/24 14:26:07;;;;;;;28.10;9.10;;;614.60;2432.00;;;;;;5033012;28;20052;-80
2022/10/24 14:28:36;;;;;;;26.25;8.60;;;614.50;2432.00;;;;;;5010943;28;20088;-80
2022/10/24 14:31:05;;;;;;;30.02;10.02;;;614.50;2432.00;;;;;;5005819;28;20053;-81
2022/10/24 14:33:51;;;;;;;35.00;10.27;;;614.40;2380.80;;;;;;4999684;28;20045;-79
2022/10/24 14:36:21;;;;;;;34.53;11.10;;;589.70;2406.40;;;;;;4998638;28;20093;-80
2022/10/24 14:38:51;;;;;;;23.30;10.35;;;589.60;2432.00;;;;;;5009761;28;20030;-81
2022/10/24 14:41:18;;;;;;;26.17;9.30;;;589.50;2432.00;;;;;;5005379;28;20065;-81
2022/10/24 14:43:45;;;;;;;34.85;12.45;;;589.40;2432.00;;;;;;5003523;28;20030;-80
2022/10/24 14:46:10;;;;;;;28.40;8.80;;;589.40;2432.00;;;;;;5003642;28;20030;-79
2022/10/24 14:48:38;;;;;;;34.15;10.32;;;589.30;2432.00;;;;;;5027572;28;20095;-81
2022/10/24 14:51:14;;;;;;;30.42;9.80;;;589.30;2432.00;;;;;;5025875;28;20049;-82
2022/10/24 14:53:43;;;;;;;29.63;9.57;;;589.10;2432.00;;;;;;5026957;28;20373;-82
2022/10/24 14:56:27;;;;;;;25.50;8.80;;;589.00;2432.00;;;;;;5031836;28;20041;-80
2022/10/24 14:58:55;;;;;;;31.77;10.65;;;589.00;2432.00;;;;;;5016827;28;20033;-82
2022/10/24 15:01:23;;;;;;;30.15;9.52;;;588.80;2432.00;;;;;;5001986;28;20026;-79
2022/10/24 15:04:03;;;;;;;22.70;9.50;;;588.80;2432.00;;;;;;4995036;28;20085;-79
2022/10/24 15:06:40;;;;;;;26.70;9.45;;;588.80;2432.00;;;;;;5017231;28;20395;-80
2022/10/24 15:09:09;;;;;;;32.67;10.10;;;564.10;2432.00;;;;;;4999419;28;20038;-80
2022/10/24 15:11:44;;;;;;;31.92;10.05;;;564.10;2432.00;;;;;;5005832;28;20037;-80
2022/10/24 15:14:47;;;;;;;23.80;10.10;;;564.10;2432.00;;;;;;5001625;28;20066;-79
2022/10/24 15:17:16;;;;;;;26.58;10.30;;;564.10;2432.00;;;;;;4930613;29;20039;-79
2022/10/24 15:19:46;;;;;;;22.95;9.30;;;563.90;2432.00;;;;;;4921946;29;20438;-82
2022/10/24 15:22:34;;;;;;;31.55;9.95;;;563.90;2432.00;;;;;;4946397;29;20138;-80
2022/10/24 15:25:03;;;;;;;39.33;9.75;;;563.80;2432.00;;;;;;4937267;29;20028;-81
2022/10/24 15:27:40;;;;;;;26.15;9.73;;;563.80;2432.00;;;;;;4936947;29;20047;-81
2022/10/24 15:30:16;;;;;;;26.92;10.20;;;563.60;2432.00;;;;;;4937130;29;20505;-83
2022/10/24 15:32:42;;;;;;;27.48;10.38;;;563.60;2432.00;;;;;;4936957;29;20035;-81
2022/10/24 15:35:08;;;;;;;33.53;9.65;;;563.50;2432.00;;;;;;4937008;29;20051;-82
2022/10/24 15:37:34;;;;;;;38.22;11.95;;;563.30;2432.00;;;;;;4936638;29;20122;-82
2022/10/24 15:40:12;;;;;;;28.30;10.70;;;563.20;2432.00;;;;;;4937219;29;20417;-82
2022/10/24 15:42:38;;;;;;;36.65;11.07;;;538.50;2406.40;;;;;;4936784;29;20543;-81
2022/10/24 15:45:11;;;;;;;29.48;11.13;;;538.50;2406.40;;;;;;4936588;29;20055;-82
2022/10/24 15:47:37;;;;;;;34.60;12.25;;;538.40;2406.40;;;;;;4933404;29;20031;-82